sensor_id;sensor_type;location;lat;lon;timestamp;pressure;altitude;pressure_sealevel;temperature;humidity
48942;BME280;35340;52.378;4.648;2022-09-03T00:00:10;101220.97;;;22.94;40.21
48942;BME280;35340;52.378;4.648;2022-09-03T00:02:52;101220.13;;;22.93;40.33
48942;BME280;35340;52.378;4.648;2022-09-03T00:05:42;101218.38;;;22.92;40.38
48942;BME280;35340;52.378;4.648;2022-09-03T00:10:56;101211.34;;;22.93;40.88
48942;BME280;35340;52.378;4.648;2022-09-03T00:13:29;101207.00;;;22.93;40.83
48942;BME280;35340;52.378;4.648;2022-09-03T00:15:56;101210.47;;;22.94;40.76
48942;BME280;35340;52.378;4.648;2022-09-03T00:18:26;101209.63;;;22.93;40.79
48942;BME280;35340;52.378;4.648;2022-09-03T00:20:57;101202.63;;;22.92;40.76
48942;BME280;35340;52.378;4.648;2022-09-03T00:23:37;101204.38;;;22.93;40.80
48942;BME280;35340;52.378;4.648;2022-09-03T00:26:18;101201.75;;;22.93;40.67
48942;BME280;35340;52.378;4.648;2022-09-03T00:29:02;101200.00;;;22.92;40.86
48942;BME280;35340;52.378;4.648;2022-09-03T00:31:35;101199.13;;;22.93;40.90
48942;BME280;35340;52.378;4.648;2022-09-03T00:34:20;101199.13;;;22.93;40.97
48942;BME280;35340;52.378;4.648;2022-09-03T00:36:46;101200.84;;;22.93;40.82
48942;BME280;35340;52.378;4.648;2022-09-03T00:39:16;101196.50;;;22.93;40.96
48942;BME280;35340;52.378;4.648;2022-09-03T00:47:04;101195.59;;;22.93;40.74
48942;BME280;35340;52.378;4.648;2022-09-03T00:57:57;101192.97;;;22.93;40.52
48942;BME280;35340;52.378;4.648;2022-09-03T01:00:28;101188.66;;;22.92;40.76
48942;BME280;35340;52.378;4.648;2022-09-03T01:03:07;101193.91;;;22.92;40.92
48942;BME280;35340;52.378;4.648;2022-09-03T01:13:56;101186.03;;;22.92;41.04
48942;BME280;35340;52.378;4.648;2022-09-03T01:16:34;101180.78;;;22.92;40.80
48942;BME280;35340;52.378;4.648;2022-09-03T01:37:36;101186.97;;;22.89;40.72
48942;BME280;35340;52.378;4.648;2022-09-03T01:45:36;101186.06;;;22.90;40.62
48942;BME280;35340;52.378;4.648;2022-09-03T01:58:53;101190.44;;;22.90;40.86
48942;BME280;35340;52.378;4.648;2022-09-03T02:01:27;101189.59;;;22.89;40.64
48942;BME280;35340;52.378;4.648;2022-09-03T02:03:54;101186.13;;;22.89;40.58
48942;BME280;35340;52.378;4.648;2022-09-03T02:06:24;101189.59;;;22.89;40.90
48942;BME280;35340;52.378;4.648;2022-09-03T02:08:50;101189.59;;;22.89;40.66
48942;BME280;35340;52.378;4.648;2022-09-03T02:11:15;101182.63;;;22.88;40.99
48942;BME280;35340;52.378;4.648;2022-09-03T02:13:46;101186.97;;;22.89;40.67
48942;BME280;35340;52.378;4.648;2022-09-03T02:16:16;101188.75;;;22.89;40.46
48942;BME280;35340;52.378;4.648;2022-09-03T02:18:49;101186.97;;;22.89;40.98
48942;BME280;35340;52.378;4.648;2022-09-03T02:21:18;101166.88;;;22.88;40.96
48942;BME280;35340;52.378;4.648;2022-09-03T02:23:44;101173.84;;;22.89;40.70
48942;BME280;35340;52.378;4.648;2022-09-03T02:26:11;101179.13;;;22.88;40.68
48942;BME280;35340;52.378;4.648;2022-09-03T02:28:38;101180.00;;;22.88;40.70
48942;BME280;35340;52.378;4.648;2022-09-03T02:31:04;101170.41;;;22.87;40.57
48942;BME280;35340;52.378;4.648;2022-09-03T02:33:36;101169.50;;;22.88;40.76
48942;BME280;35340;52.378;4.648;2022-09-03T02:36:05;101173.00;;;22.89;40.35
48942;BME280;35340;52.378;4.648;2022-09-03T02:38:31;101176.50;;;22.88;40.90
48942;BME280;35340;52.378;4.648;2022-09-03T02:40:56;101167.78;;;22.87;40.62
48942;BME280;35340;52.378;4.648;2022-09-03T02:43:31;101163.41;;;22.86;40.58
48942;BME280;35340;52.378;4.648;2022-09-03T02:46:03;101160.78;;;22.86;40.48
48942;BME280;35340;52.378;4.648;2022-09-03T02:48:31;101165.19;;;22.86;40.83
48942;BME280;35340;52.378;4.648;2022-09-03T02:50:57;101166.94;;;22.87;40.90
48942;BME280;35340;52.378;4.648;2022-09-03T02:53:23;101169.56;;;22.87;40.51
48942;BME280;35340;52.378;4.648;2022-09-03T02:55:48;101166.00;;;22.88;40.57
48942;BME280;35340;52.378;4.648;2022-09-03T02:58:14;101166.94;;;22.87;40.84
48942;BME280;35340;52.378;4.648;2022-09-03T03:00:39;101163.41;;;22.86;40.82
48942;BME280;35340;52.378;4.648;2022-09-03T03:03:05;101168.66;;;22.86;40.58
48942;BME280;35340;52.378;4.648;2022-09-03T03:05:41;101165.19;;;22.86;41.01
48942;BME280;35340;52.378;4.648;2022-09-03T03:08:08;101166.09;;;22.85;40.67
48942;BME280;35340;52.378;4.648;2022-09-03T03:10:34;101171.34;;;22.85;40.92
48942;BME280;35340;52.378;4.648;2022-09-03T03:13:00;101170.47;;;22.84;40.60
48942;BME280;35340;52.378;4.648;2022-09-03T03:15:25;101166.09;;;22.85;40.73
48942;BME280;35340;52.378;4.648;2022-09-03T03:17:55;101166.97;;;22.85;40.57
48942;BME280;35340;52.378;4.648;2022-09-03T03:22:46;101174.88;;;22.84;40.44
48942;BME280;35340;52.378;4.648;2022-09-03T03:25:11;101168.72;;;22.85;40.80
48942;BME280;35340;52.378;4.648;2022-09-03T03:27:37;101166.13;;;22.83;40.51
48942;BME280;35340;52.378;4.648;2022-09-03T03:30:06;101172.25;;;22.84;40.54
48942;BME280;35340;52.378;4.648;2022-09-03T03:32:34;101172.25;;;22.84;40.86
48942;BME280;35340;52.378;4.648;2022-09-03T03:34:59;101162.59;;;22.84;40.78
48942;BME280;35340;52.378;4.648;2022-09-03T03:37:25;101159.97;;;22.84;40.69
48942;BME280;35340;52.378;4.648;2022-09-03T03:39:50;101166.09;;;22.85;40.44
48942;BME280;35340;52.378;4.648;2022-09-03T03:42:15;101166.13;;;22.83;40.56
48942;BME280;35340;52.378;4.648;2022-09-03T03:44:41;101170.47;;;22.84;40.29
48942;BME280;35340;52.378;4.648;2022-09-03T03:47:08;101173.97;;;22.85;40.69
48942;BME280;35340;52.378;4.648;2022-09-03T03:49:33;101177.50;;;22.84;40.58
48942;BME280;35340;52.378;4.648;2022-09-03T03:51:59;101174.00;;;22.83;40.56
48942;BME280;35340;52.378;4.648;2022-09-03T03:54:24;101172.25;;;22.84;40.91
48942;BME280;35340;52.378;4.648;2022-09-03T03:56:50;101175.81;;;22.81;40.86
48942;BME280;35340;52.378;4.648;2022-09-03T03:59:15;101172.31;;;22.82;40.65
48942;BME280;35340;52.378;4.648;2022-09-03T04:01:40;101171.38;;;22.83;40.83
48942;BME280;35340;52.378;4.648;2022-09-03T04:04:06;101169.69;;;22.82;40.59
48942;BME280;35340;52.378;4.648;2022-09-03T04:06:31;101167.09;;;22.80;40.50
48942;BME280;35340;52.378;4.648;2022-09-03T04:08:56;101158.31;;;22.82;40.99
48942;BME280;35340;52.378;4.648;2022-09-03T04:11:23;101169.72;;;22.80;40.51
48942;BME280;35340;52.378;4.648;2022-09-03T04:13:50;101161.84;;;22.80;40.77
48942;BME280;35340;52.378;4.648;2022-09-03T04:16:18;101169.72;;;22.80;40.54
48942;BME280;35340;52.378;4.648;2022-09-03T04:18:44;101165.34;;;22.79;40.46
48942;BME280;35340;52.378;4.648;2022-09-03T04:21:15;101164.50;;;22.79;40.63
48942;BME280;35340;52.378;4.648;2022-09-03T04:23:43;101173.22;;;22.79;40.26
48942;BME280;35340;52.378;4.648;2022-09-03T04:26:11;101165.34;;;22.79;40.73
48942;BME280;35340;52.378;4.648;2022-09-03T04:28:37;101164.50;;;22.79;40.65
48942;BME280;35340;52.378;4.648;2022-09-03T04:31:08;101165.41;;;22.78;40.29
48942;BME280;35340;52.378;4.648;2022-09-03T04:33:34;101165.34;;;22.79;40.56
48942;BME280;35340;52.378;4.648;2022-09-03T04:36:16;101161.91;;;22.77;40.32
48942;BME280;35340;52.378;4.648;2022-09-03T04:38:44;101163.63;;;22.78;40.32
48942;BME280;35340;52.378;4.648;2022-09-03T04:41:13;101157.53;;;22.78;40.29
48942;BME280;35340;52.378;4.648;2022-09-03T04:43:40;101154.91;;;22.78;40.38
48942;BME280;35340;52.378;4.648;2022-09-03T04:46:10;101152.31;;;22.76;40.61
48942;BME280;35340;52.378;4.648;2022-09-03T04:48:36;101148.78;;;22.77;40.29
48942;BME280;35340;52.378;4.648;2022-09-03T04:51:07;101157.53;;;22.78;40.20
48942;BME280;35340;52.378;4.648;2022-09-03T04:53:34;101153.19;;;22.77;40.49
48942;BME280;35340;52.378;4.648;2022-09-03T04:56:01;101153.19;;;22.77;40.27
48942;BME280;35340;52.378;4.648;2022-09-03T04:58:26;101153.19;;;22.77;40.39
48942;BME280;35340;52.378;4.648;2022-09-03T05:00:52;101144.41;;;22.78;40.27
48942;BME280;35340;52.378;4.648;2022-09-03T05:03:17;101155.78;;;22.78;40.51
48942;BME280;35340;52.378;4.648;2022-09-03T05:05:51;101148.75;;;22.79;40.27
48942;BME280;35340;52.378;4.648;2022-09-03T05:08:16;101147.91;;;22.78;40.53
48942;BME280;35340;52.378;4.648;2022-09-03T05:10:41;101149.66;;;22.78;40.26
48942;BME280;35340;52.378;4.648;2022-09-03T05:13:07;101156.63;;;22.79;40.44
48942;BME280;35340;52.378;4.648;2022-09-03T05:15:32;101149.59;;;22.79;40.36
48942;BME280;35340;52.378;4.648;2022-09-03T05:17:58;101149.59;;;22.79;40.50
48942;BME280;35340;52.378;4.648;2022-09-03T05:20:26;101155.69;;;22.82;40.26
48942;BME280;35340;52.378;4.648;2022-09-03T05:22:54;101151.31;;;22.82;40.18
48942;BME280;35340;52.378;4.648;2022-09-03T05:25:19;101151.31;;;22.82;40.42
48942;BME280;35340;52.378;4.648;2022-09-03T05:27:45;101157.41;;;22.83;40.36
48942;BME280;35340;52.378;4.648;2022-09-03T05:30:11;101151.34;;;22.80;40.19
48942;BME280;35340;52.378;4.648;2022-09-03T05:32:36;101150.50;;;22.80;40.42
48942;BME280;35340;52.378;4.648;2022-09-03T05:35:02;101161.88;;;22.79;40.11
48942;BME280;35340;52.378;4.648;2022-09-03T05:37:28;101153.19;;;22.77;40.12
48942;BME280;35340;52.378;4.648;2022-09-03T05:39:56;101159.28;;;22.77;40.55
48942;BME280;35340;52.378;4.648;2022-09-03T05:42:21;101154.97;;;22.75;40.23
48942;BME280;35340;52.378;4.648;2022-09-03T05:44:47;101154.09;;;22.76;40.25
48942;BME280;35340;52.378;4.648;2022-09-03T05:47:14;101146.22;;;22.76;40.43
48942;BME280;35340;52.378;4.648;2022-09-03T05:49:40;101147.97;;;22.75;40.31
48942;BME280;35340;52.378;4.648;2022-09-03T05:52:05;101143.53;;;22.77;40.28
48942;BME280;35340;52.378;4.648;2022-09-03T05:54:30;101148.72;;;22.80;39.95
48942;BME280;35340;52.378;4.648;2022-09-03T05:56:56;101144.00;;;22.93;39.17
48942;BME280;35340;52.378;4.648;2022-09-03T05:59:21;101145.19;;;23.14;38.21
48942;BME280;35340;52.378;4.648;2022-09-03T06:01:47;101143.03;;;23.29;37.81
48942;BME280;35340;52.378;4.648;2022-09-03T06:04:15;101141.88;;;23.39;36.85
48942;BME280;35340;52.378;4.648;2022-09-03T06:06:45;101141.63;;;23.48;36.04
48942;BME280;35340;52.378;4.648;2022-09-03T06:09:12;101145.72;;;23.57;35.30
48942;BME280;35340;52.378;4.648;2022-09-03T06:11:40;101148.13;;;23.65;34.47
48942;BME280;35340;52.378;4.648;2022-09-03T06:14:08;101145.38;;;23.69;34.15
48942;BME280;35340;52.378;4.648;2022-09-03T06:16:45;101150.63;;;23.69;34.32
48942;BME280;35340;52.378;4.648;2022-09-03T06:19:12;101150.69;;;23.66;34.27
48942;BME280;35340;52.378;4.648;2022-09-03T06:21:43;101149.13;;;23.60;33.58
48942;BME280;35340;52.378;4.648;2022-09-03T06:24:17;101151.28;;;24.06;31.95
48942;BME280;35340;52.378;4.648;2022-09-03T06:26:43;101153.69;;;25.40;29.30
48942;BME280;35340;52.378;4.648;2022-09-03T06:29:09;101161.19;;;25.98;28.22
48942;BME280;35340;52.378;4.648;2022-09-03T06:31:35;101149.88;;;26.17;27.82
48942;BME280;35340;52.378;4.648;2022-09-03T06:34:00;101163.84;;;26.19;27.48
48942;BME280;35340;52.378;4.648;2022-09-03T06:36:26;101161.72;;;25.61;28.23
48942;BME280;35340;52.378;4.648;2022-09-03T06:38:53;101174.13;;;24.58;30.30
48942;BME280;35340;52.378;4.648;2022-09-03T06:41:21;101172.81;;;23.89;31.46
48942;BME280;35340;52.378;4.648;2022-09-03T06:43:47;101165.91;;;23.56;31.78
48942;BME280;35340;52.378;4.648;2022-09-03T06:46:15;101168.75;;;23.47;32.26
48942;BME280;35340;52.378;4.648;2022-09-03T06:48:41;101163.72;;;23.41;31.81
48942;BME280;35340;52.378;4.648;2022-09-03T06:51:15;101163.78;;;23.38;32.04
48942;BME280;35340;52.378;4.648;2022-09-03T06:53:44;101167.41;;;23.34;32.02
48942;BME280;35340;52.378;4.648;2022-09-03T06:56:12;101171.00;;;23.30;32.42
48942;BME280;35340;52.378;4.648;2022-09-03T06:58:42;101172.66;;;23.34;32.44
48942;BME280;35340;52.378;4.648;2022-09-03T07:01:10;101174.53;;;23.30;31.98
48942;BME280;35340;52.378;4.648;2022-09-03T07:03:38;101177.47;;;23.49;31.88
48942;BME280;35340;52.378;4.648;2022-09-03T07:06:15;101178.84;;;23.92;31.08
48942;BME280;35340;52.378;4.648;2022-09-03T07:08:41;101185.03;;;23.91;31.12
48942;BME280;35340;52.378;4.648;2022-09-03T07:11:10;101179.56;;;23.68;31.73
48942;BME280;35340;52.378;4.648;2022-09-03T07:13:41;101183.53;;;23.51;31.69
48942;BME280;35340;52.378;4.648;2022-09-03T07:16:10;101192.41;;;23.47;31.85
48942;BME280;35340;52.378;4.648;2022-09-03T07:18:37;101184.91;;;23.35;32.03
48942;BME280;35340;52.378;4.648;2022-09-03T07:21:07;101184.91;;;23.35;31.62
48942;BME280;35340;52.378;4.648;2022-09-03T07:23:34;101181.22;;;23.40;32.02
48942;BME280;35340;52.378;4.648;2022-09-03T07:26:01;101186.66;;;23.34;31.76
48942;BME280;35340;52.378;4.648;2022-09-03T07:28:28;101180.78;;;23.56;31.47
48942;BME280;35340;52.378;4.648;2022-09-03T07:30:59;101185.91;;;23.60;31.51
48942;BME280;35340;52.378;4.648;2022-09-03T07:33:25;101183.63;;;23.79;31.29
48942;BME280;35340;52.378;4.648;2022-09-03T07:35:50;101197.44;;;23.86;31.01
48942;BME280;35340;52.378;4.648;2022-09-03T07:38:17;101189.22;;;23.97;31.00
48942;BME280;35340;52.378;4.648;2022-09-03T07:40:44;101191.00;;;23.96;31.09
48942;BME280;35340;52.378;4.648;2022-09-03T07:43:11;101191.09;;;23.93;31.09
48942;BME280;35340;52.378;4.648;2022-09-03T07:45:36;101190.84;;;24.01;31.26
48942;BME280;35340;52.378;4.648;2022-09-03T07:48:03;101197.28;;;24.19;30.81
48942;BME280;35340;52.378;4.648;2022-09-03T07:50:29;101195.66;;;24.15;31.08
48942;BME280;35340;52.378;4.648;2022-09-03T07:52:58;101194.16;;;24.08;31.23
48942;BME280;35340;52.378;4.648;2022-09-03T07:55:24;101207.69;;;23.95;31.56
48942;BME280;35340;52.378;4.648;2022-09-03T07:57:54;101203.22;;;23.97;31.09
48942;BME280;35340;52.378;4.648;2022-09-03T08:00:20;101194.59;;;23.94;31.53
48942;BME280;35340;52.378;4.648;2022-09-03T08:02:45;101191.56;;;24.06;31.43
48942;BME280;35340;52.378;4.648;2022-09-03T08:05:10;101181.81;;;23.81;31.69
48942;BME280;35340;52.378;4.648;2022-09-03T08:07:36;101190.28;;;23.91;31.95
48942;BME280;35340;52.378;4.648;2022-09-03T08:10:01;101192.09;;;23.89;31.67
48942;BME280;35340;52.378;4.648;2022-09-03T08:12:26;101195.31;;;23.97;31.84
48942;BME280;35340;52.378;4.648;2022-09-03T08:14:52;101193.09;;;23.85;32.04
48942;BME280;35340;52.378;4.648;2022-09-03T08:17:17;101197.28;;;23.91;31.88
48942;BME280;35340;52.378;4.648;2022-09-03T08:19:43;101206.19;;;23.87;31.89
48942;BME280;35340;52.378;4.648;2022-09-03T08:22:10;101200.03;;;23.88;32.15
48942;BME280;35340;52.378;4.648;2022-09-03T08:24:36;101199.44;;;23.78;31.85
48942;BME280;35340;52.378;4.648;2022-09-03T08:27:01;101199.53;;;23.73;32.29
48942;BME280;35340;52.378;4.648;2022-09-03T08:29:27;101207.38;;;23.75;32.13
48942;BME280;35340;52.378;4.648;2022-09-03T08:31:55;101208.59;;;23.63;32.26
48942;BME280;35340;52.378;4.648;2022-09-03T08:36:46;101214.75;;;23.62;32.87
48942;BME280;35340;52.378;4.648;2022-09-03T08:39:12;101211.13;;;23.66;32.47
48942;BME280;35340;52.378;4.648;2022-09-03T08:41:57;101212.28;;;23.56;32.49
48942;BME280;35340;52.378;4.648;2022-09-03T08:44:29;101214.91;;;23.56;33.12
48942;BME280;35340;52.378;4.648;2022-09-03T08:49:48;101210.63;;;23.53;32.95
48942;BME280;35340;52.378;4.648;2022-09-03T08:54:48;101210.84;;;23.46;33.19
48942;BME280;35340;52.378;4.648;2022-09-03T08:57:14;101211.72;;;23.46;33.03
48942;BME280;35340;52.378;4.648;2022-09-03T08:59:40;101216.88;;;23.49;32.88
48942;BME280;35340;52.378;4.648;2022-09-03T09:05:00;101211.91;;;23.38;33.47
48942;BME280;35340;52.378;4.648;2022-09-03T09:07:39;101206.75;;;23.35;33.58
48942;BME280;35340;52.378;4.648;2022-09-03T09:10:17;101208.38;;;23.41;33.39
48942;BME280;35340;52.378;4.648;2022-09-03T09:13:04;101212.97;;;23.33;33.55
48942;BME280;35340;52.378;4.648;2022-09-03T09:21:09;101210.34;;;23.33;33.59
48942;BME280;35340;52.378;4.648;2022-09-03T09:23:45;101207.06;;;23.25;34.04
48942;BME280;35340;52.378;4.648;2022-09-03T09:26:14;101205.78;;;23.39;34.03
48942;BME280;35340;52.378;4.648;2022-09-03T09:28:41;101213.63;;;23.08;38.86
48942;BME280;35340;52.378;4.648;2022-09-03T09:31:10;101217.25;;;22.68;38.43
48942;BME280;35340;52.378;4.648;2022-09-03T09:33:39;101214.63;;;22.32;40.64
48942;BME280;35340;52.378;4.648;2022-09-03T09:36:07;101215.78;;;22.17;44.32
48942;BME280;35340;52.378;4.648;2022-09-03T09:38:37;101213.41;;;22.07;45.18
48942;BME280;35340;52.378;4.648;2022-09-03T09:43:34;101210.19;;;21.94;44.40
48942;BME280;35340;52.378;4.648;2022-09-03T09:46:11;101216.13;;;22.04;43.05
48942;BME280;35340;52.378;4.648;2022-09-03T09:48:42;101202.34;;;21.94;46.18
48942;BME280;35340;52.378;4.648;2022-09-03T09:51:17;101212.00;;;21.92;47.28
48942;BME280;35340;52.378;4.648;2022-09-03T09:53:43;101215.38;;;21.97;43.95
48942;BME280;35340;52.378;4.648;2022-09-03T09:56:20;101222.25;;;22.03;46.95
48942;BME280;35340;52.378;4.648;2022-09-03T09:58:46;101218.81;;;21.99;43.17
48942;BME280;35340;52.378;4.648;2022-09-03T10:03:55;101217.84;;;22.03;43.00
48942;BME280;35340;52.378;4.648;2022-09-03T10:08:47;101214.47;;;21.98;44.42
48942;BME280;35340;52.378;4.648;2022-09-03T10:11:12;101215.41;;;21.95;44.54
48942;BME280;35340;52.378;4.648;2022-09-03T10:13:44;101211.66;;;22.06;44.06
48942;BME280;35340;52.378;4.648;2022-09-03T10:16:22;101205.66;;;22.02;45.11
48942;BME280;35340;52.378;4.648;2022-09-03T10:23:56;101197.94;;;21.94;45.74
48942;BME280;35340;52.378;4.648;2022-09-03T10:26:23;101203.75;;;22.10;44.24
48942;BME280;35340;52.378;4.648;2022-09-03T10:29:03;101198.53;;;22.07;44.03
48942;BME280;35340;52.378;4.648;2022-09-03T10:34:15;101203.75;;;22.10;41.86
48942;BME280;35340;52.378;4.648;2022-09-03T10:37:11;101200.03;;;22.19;42.42
48942;BME280;35340;52.378;4.648;2022-09-03T10:48:06;101196.47;;;22.23;41.29
48942;BME280;35340;52.378;4.648;2022-09-03T10:58:49;101188.34;;;22.34;43.71
48942;BME280;35340;52.378;4.648;2022-09-03T11:09:13;101194.53;;;22.31;41.66
48942;BME280;35340;52.378;4.648;2022-09-03T11:11:48;101197.09;;;22.34;41.64
48942;BME280;35340;52.378;4.648;2022-09-03T11:14:22;101197.00;;;22.37;40.06
48942;BME280;35340;52.378;4.648;2022-09-03T11:16:57;101193.41;;;22.42;39.57
48942;BME280;35340;52.378;4.648;2022-09-03T11:19:33;101193.56;;;22.35;41.19
48942;BME280;35340;52.378;4.648;2022-09-03T11:22:02;101196.25;;;22.32;40.98
48942;BME280;35340;52.378;4.648;2022-09-03T11:24:30;101189.75;;;22.49;38.69
48942;BME280;35340;52.378;4.648;2022-09-03T11:34:48;101188.91;;;22.47;39.87
48942;BME280;35340;52.378;4.648;2022-09-03T11:40:04;101187.06;;;22.52;40.09
48942;BME280;35340;52.378;4.648;2022-09-03T11:42:37;101186.16;;;22.51;39.83
48942;BME280;35340;52.378;4.648;2022-09-03T11:47:47;101178.25;;;22.54;38.21
48942;BME280;35340;52.378;4.648;2022-09-03T11:52:48;101172.63;;;22.70;38.55
48942;BME280;35340;52.378;4.648;2022-09-03T11:57:46;101164.38;;;22.84;39.23
48942;BME280;35340;52.378;4.648;2022-09-03T12:00:15;101179.50;;;22.74;42.47
48942;BME280;35340;52.378;4.648;2022-09-03T12:02:56;101175.28;;;22.67;43.40
48942;BME280;35340;52.378;4.648;2022-09-03T12:10:57;101172.41;;;22.43;46.32
48942;BME280;35340;52.378;4.648;2022-09-03T12:13:55;101178.78;;;22.33;47.49
48942;BME280;35340;52.378;4.648;2022-09-03T12:16:36;101175.34;;;22.29;46.96
48942;BME280;35340;52.378;4.648;2022-09-03T12:19:12;101179.81;;;22.26;47.88
48942;BME280;35340;52.378;4.648;2022-09-03T12:21:41;101181.50;;;22.28;47.47
48942;BME280;35340;52.378;4.648;2022-09-03T12:24:10;101175.41;;;22.28;46.68
48942;BME280;35340;52.378;4.648;2022-09-03T12:26:39;101182.19;;;22.36;44.83
48942;BME280;35340;52.378;4.648;2022-09-03T12:29:06;101179.47;;;22.39;43.74
48942;BME280;35340;52.378;4.648;2022-09-03T12:31:48;101174.13;;;22.44;42.30
48942;BME280;35340;52.378;4.648;2022-09-03T12:34:19;101173.06;;;22.51;41.92
48942;BME280;35340;52.378;4.648;2022-09-03T12:36:50;101171.47;;;22.46;45.24
48942;BME280;35340;52.378;4.648;2022-09-03T12:41:59;101171.47;;;22.46;43.65
48942;BME280;35340;52.378;4.648;2022-09-03T12:44:27;101169.66;;;22.48;42.83
48942;BME280;35340;52.378;4.648;2022-09-03T12:47:09;101185.34;;;22.49;42.41
48942;BME280;35340;52.378;4.648;2022-09-03T12:49:40;101181.75;;;22.53;40.47
48942;BME280;35340;52.378;4.648;2022-09-03T12:54:49;101171.91;;;22.63;39.72
48942;BME280;35340;52.378;4.648;2022-09-03T12:57:21;101176.34;;;22.59;42.35
48942;BME280;35340;52.378;4.648;2022-09-03T12:59:47;101171.91;;;22.63;38.78
48942;BME280;35340;52.378;4.648;2022-09-03T13:02:21;101173.56;;;22.67;40.20
48942;BME280;35340;52.378;4.648;2022-09-03T13:04:46;101176.13;;;22.69;39.15
48942;BME280;35340;52.378;4.648;2022-09-03T13:09:47;101165.13;;;22.54;44.08
48942;BME280;35340;52.378;4.648;2022-09-03T13:12:21;101171.09;;;22.61;40.32
48942;BME280;35340;52.378;4.648;2022-09-03T13:14:47;101163.94;;;22.66;40.62
48942;BME280;35340;52.378;4.648;2022-09-03T13:30:21;101155.34;;;22.94;38.66
48942;BME280;35340;52.378;4.648;2022-09-03T13:33:03;101145.72;;;22.94;38.81
48942;BME280;35340;52.378;4.648;2022-09-03T13:38:03;101154.31;;;23.01;38.88
48942;BME280;35340;52.378;4.648;2022-09-03T13:43:46;101152.50;;;23.03;38.97
48942;BME280;35340;52.378;4.648;2022-09-03T13:48:47;101153.31;;;23.05;38.91
48942;BME280;35340;52.378;4.648;2022-09-03T13:51:50;101155.91;;;23.07;39.52
48942;BME280;35340;52.378;4.648;2022-09-03T13:56:52;101152.34;;;23.09;39.60
48942;BME280;35340;52.378;4.648;2022-09-03T14:07:47;101148.69;;;23.15;39.74
48942;BME280;35340;52.378;4.648;2022-09-03T14:15:50;101146.78;;;23.20;39.82
48942;BME280;35340;52.378;4.648;2022-09-03T14:23:51;101151.13;;;23.21;39.98
48942;BME280;35340;52.378;4.648;2022-09-03T14:28:58;101149.31;;;23.23;40.31
48942;BME280;35340;52.378;4.648;2022-09-03T14:39:54;101157.06;;;23.28;40.78
48942;BME280;35340;52.378;4.648;2022-09-03T14:51:11;101157.03;;;23.29;41.09
48942;BME280;35340;52.378;4.648;2022-09-03T14:54:16;101158.78;;;23.30;40.83
48942;BME280;35340;52.378;4.648;2022-09-03T14:57:20;101163.06;;;23.33;40.68
48942;BME280;35340;52.378;4.648;2022-09-03T15:00:13;101162.22;;;23.32;41.00
48942;BME280;35340;52.378;4.648;2022-09-03T15:08:00;101158.56;;;23.36;41.28
48942;BME280;35340;52.378;4.648;2022-09-03T15:10:48;101161.16;;;23.38;41.27
48942;BME280;35340;52.378;4.648;2022-09-03T15:13:20;101162.91;;;23.39;41.75
48942;BME280;35340;52.378;4.648;2022-09-03T15:20:49;101169.84;;;23.40;41.32
48942;BME280;35340;52.378;4.648;2022-09-03T15:33:51;101168.88;;;23.44;41.03
48942;BME280;35340;52.378;4.648;2022-09-03T15:39:00;101169.78;;;23.43;41.12
48942;BME280;35340;52.378;4.648;2022-09-03T15:41:36;101172.41;;;23.43;41.40
48942;BME280;35340;52.378;4.648;2022-09-03T15:44:10;101169.72;;;23.45;41.31
48942;BME280;35340;52.378;4.648;2022-09-03T15:49:22;101174.13;;;23.44;41.38
48942;BME280;35340;52.378;4.648;2022-09-03T15:52:07;101174.09;;;23.46;41.29
48942;BME280;35340;52.378;4.648;2022-09-03T16:00:00;101168.91;;;23.42;41.17
48942;BME280;35340;52.378;4.648;2022-09-03T16:10:51;101170.63;;;23.44;41.18
48942;BME280;35340;52.378;4.648;2022-09-03T16:16:21;101168.91;;;23.42;41.19
48942;BME280;35340;52.378;4.648;2022-09-03T16:19:11;101172.41;;;23.43;41.24
48942;BME280;35340;52.378;4.648;2022-09-03T16:21:43;101172.41;;;23.43;41.28
48942;BME280;35340;52.378;4.648;2022-09-03T16:27:06;101184.66;;;23.42;40.48
48942;BME280;35340;52.378;4.648;2022-09-03T16:29:35;101184.66;;;23.42;40.53
48942;BME280;35340;52.378;4.648;2022-09-03T16:41:00;101168.25;;;23.66;37.76
48942;BME280;35340;52.378;4.648;2022-09-03T16:43:42;101170.94;;;23.94;35.08
48942;BME280;35340;52.378;4.648;2022-09-03T16:53:59;101173.75;;;24.16;33.99
48942;BME280;35340;52.378;4.648;2022-09-03T17:02:09;101184.88;;;23.96;36.30
48942;BME280;35340;52.378;4.648;2022-09-03T17:10:09;101179.09;;;23.85;34.37
48942;BME280;35340;52.378;4.648;2022-09-03T17:18:57;101180.81;;;23.86;34.09
48942;BME280;35340;52.378;4.648;2022-09-03T17:21:37;101183.72;;;23.76;34.39
48942;BME280;35340;52.378;4.648;2022-09-03T17:32:14;101192.97;;;23.58;35.27
48942;BME280;35340;52.378;4.648;2022-09-03T17:45:50;101215.34;;;23.40;36.55
48942;BME280;35340;52.378;4.648;2022-09-03T17:50:57;101210.34;;;23.33;37.04
48942;BME280;35340;52.378;4.648;2022-09-03T17:53:39;101219.22;;;23.27;38.62
48942;BME280;35340;52.378;4.648;2022-09-03T17:56:18;101234.16;;;23.25;37.63
48942;BME280;35340;52.378;4.648;2022-09-03T17:59:09;101228.84;;;23.28;36.52
48942;BME280;35340;52.378;4.648;2022-09-03T18:01:39;101229.03;;;23.20;37.88
48942;BME280;35340;52.378;4.648;2022-09-03T18:06:55;101242.31;;;23.14;37.18
48942;BME280;35340;52.378;4.648;2022-09-03T18:09:34;101243.13;;;23.18;38.08
48942;BME280;35340;52.378;4.648;2022-09-03T18:14:53;101250.72;;;23.29;39.90
48942;BME280;35340;52.378;4.648;2022-09-03T18:20:05;101253.47;;;23.24;37.63
48942;BME280;35340;52.378;4.648;2022-09-03T18:23:04;101262.31;;;23.20;39.90
48942;BME280;35340;52.378;4.648;2022-09-03T18:25:53;101259.72;;;23.18;39.18
48942;BME280;35340;52.378;4.648;2022-09-03T18:28:47;101263.19;;;23.19;39.12